Time;durP1;ratioP1;P1;durP2;ratioP2;P2;SDS_P1;SDS_P2;PMS_P1;PMS_P2;Temp;Humidity;BMP_temperature;BMP_pressure;BME280_temperature;BME280_humidity;BME280_pressure;Samples;Min_cycle;Max_cycle;Signal;HPM_P1;HPM_P2
2022/05/30 00:00:27;;;;;;;;;2.75;1.00;;;;;10.80;59.53;100421.63;4973077;28;46077;-71
2022/05/30 00:02:53;;;;;;;;;4.00;4.00;;;;;10.79;59.74;100425.16;4973143;28;45313;-70
2022/05/30 00:05:21;;;;;;;;;2.75;2.75;;;;;10.74;60.22;100427.97;4974099;28;45317;-72
2022/05/30 00:07:47;;;;;;;;;3.50;3.50;;;;;10.71;60.47;100425.50;4975382;28;45438;-71
2022/05/30 00:10:13;;;;;;;;;6.25;5.00;;;;;10.71;60.22;100422.03;4973699;28;45403;-71
2022/05/30 00:12:39;;;;;;;;;3.25;3.25;;;;;10.62;60.35;100410.09;4973101;28;45413;-70
2022/05/30 00:15:08;;;;;;;;;2.50;2.50;;;;;10.68;60.28;100425.63;4973226;28;45335;-71
2022/05/30 00:17:33;;;;;;;;;2.75;2.75;;;;;10.63;60.73;100417.94;4974698;28;45436;-71
2022/05/30 00:19:58;;;;;;;;;5.00;4.50;;;;;10.59;60.60;100410.25;4975719;28;46297;-70
2022/05/30 00:22:24;;;;;;;;;3.75;3.00;;;;;10.62;60.83;100413.59;4974922;28;45339;-71
2022/05/30 00:24:49;;;;;;;;;3.75;3.75;;;;;10.61;60.69;100411.03;4978359;28;45248;-71
2022/05/30 00:27:15;;;;;;;;;3.75;3.75;;;;;10.60;60.87;100409.31;4978646;28;45270;-71
2022/05/30 00:29:41;;;;;;;;;3.75;3.75;;;;;10.59;61.04;100411.06;4981623;28;45429;-71
2022/05/30 00:32:08;;;;;;;;;2.75;2.75;;;;;10.57;61.30;100410.28;4978215;28;45370;-70
2022/05/30 00:34:35;;;;;;;;;4.50;4.50;;;;;10.50;61.41;100403.59;4978844;28;45253;-71
2022/05/30 00:37:00;;;;;;;;;4.75;2.50;;;;;10.54;61.63;100405.16;4979121;28;45561;-70
2022/05/30 00:39:26;;;;;;;;;3.75;3.75;;;;;10.52;61.32;100409.63;4976257;28;46106;-70
2022/05/30 00:41:51;;;;;;;;;4.00;4.00;;;;;10.44;61.38;100395.97;4975185;27;45166;-70
2022/05/30 00:44:17;;;;;;;;;3.75;3.75;;;;;10.50;61.73;100400.94;4975637;28;45316;-71
2022/05/30 00:46:43;;;;;;;;;3.00;3.00;;;;;10.45;62.26;100392.41;4976030;28;45270;-70
2022/05/30 00:49:11;;;;;;;;;5.75;2.75;;;;;10.44;62.37;100390.69;4974321;28;48293;-70
2022/05/30 00:51:45;;;;;;;;;6.00;5.00;;;;;10.40;62.24;100387.38;4980237;28;45441;-69
2022/05/30 00:54:15;;;;;;;;;4.00;4.00;;;;;10.40;62.42;100389.13;4979536;28;45497;-70
2022/05/30 00:56:45;;;;;;;;;4.00;4.00;;;;;10.37;63.06;100392.72;4976554;28;45468;-70
2022/05/30 00:59:10;;;;;;;;;4.25;3.50;;;;;10.33;62.95;100375.38;4976190;28;45330;-71
2022/05/30 01:01:36;;;;;;;;;4.25;4.25;;;;;10.32;62.75;100390.28;4975418;28;45447;-70
2022/05/30 01:06:51;;;;;;;;;5.00;5.00;;;;;10.28;63.92;100386.06;4975007;28;45350;-70
2022/05/30 01:09:23;;;;;;;;;6.25;4.50;;;;;10.25;63.83;100378.31;4974537;28;46290;-69
2022/05/30 01:11:59;;;;;;;;;5.25;5.00;;;;;10.24;63.28;100376.59;4975180;28;45403;-71
2022/05/30 01:14:37;;;;;;;;;7.00;3.75;;;;;10.21;63.74;100371.47;4975651;28;45351;-69
2022/05/30 01:17:08;;;;;;;;;3.75;3.75;;;;;10.17;64.10;100377.78;4977833;28;45208;-70
2022/05/30 01:19:46;;;;;;;;;5.00;5.00;;;;;10.15;63.96;100372.59;4980787;28;46566;-70
2022/05/30 01:22:13;;;;;;;;;6.25;6.25;;;;;10.08;65.60;100371.97;4974148;28;45411;-71
2022/05/30 01:24:49;;;;;;;;;5.75;5.75;;;;;10.02;64.75;100366.97;4974901;28;45715;-70
2022/05/30 01:27:20;;;;;;;;;5.50;5.50;;;;;10.04;64.31;100365.16;4975051;28;45217;-70
2022/05/30 01:29:52;;;;;;;;;8.00;6.25;;;;;10.04;64.61;100365.16;4975372;28;45978;-70
2022/05/30 01:32:20;;;;;;;;;9.00;9.00;;;;;10.04;64.87;100365.16;4974385;28;45458;-71
2022/05/30 01:34:46;;;;;;;;;6.25;6.25;;;;;10.03;64.63;100368.69;4977028;28;45332;-68
2022/05/30 01:37:11;;;;;;;;;6.25;6.25;;;;;10.02;64.69;100368.75;4977157;28;45223;-71
2022/05/30 01:39:36;;;;;;;;;9.75;8.75;;;;;10.00;65.35;100363.56;4974949;28;45847;-70
2022/05/30 01:42:02;;;;;;;;;11.75;8.75;;;;;9.99;65.15;100366.25;4974974;28;45291;-70
2022/05/30 01:44:27;;;;;;;;;8.50;6.25;;;;;9.99;65.11;100363.63;4975429;28;45291;-69
2022/05/30 01:46:53;;;;;;;;;9.25;9.25;;;;;9.96;65.30;100369.88;4975626;28;45532;-70
2022/05/30 01:49:18;;;;;;;;;7.75;7.75;;;;;9.92;65.49;100361.25;4974841;28;55632;-71
2022/05/30 01:51:44;;;;;;;;;5.50;5.50;;;;;9.94;65.74;100364.66;4973455;28;45342;-70
2022/05/30 01:54:10;;;;;;;;;7.50;6.75;;;;;9.87;65.55;100357.09;4975072;28;45402;-69
2022/05/30 01:56:35;;;;;;;;;7.00;7.00;;;;;9.89;65.69;100366.63;4974963;28;45454;-70
2022/05/30 01:59:01;;;;;;;;;10.00;8.00;;;;;9.89;65.49;100365.78;4957372;28;47384;-68
2022/05/30 02:01:27;;;;;;;;;11.50;11.00;;;;;9.89;65.49;100371.03;4974942;28;45314;-69
2022/05/30 02:03:54;;;;;;;;;14.75;14.00;;;;;9.84;65.95;100365.13;4978218;28;44765;-70
2022/05/30 02:06:21;;;;;;;;;16.25;15.00;;;;;9.80;65.84;100369.63;4977757;28;45523;-70
2022/05/30 02:08:47;;;;;;;;;18.25;15.75;;;;;9.77;65.71;100375.88;4976269;28;45356;-70
2022/05/30 02:11:13;;;;;;;;;29.50;26.50;;;;;9.77;66.18;100375.00;4974409;28;45235;-70
2022/05/30 02:13:39;;;;;;;;;19.25;17.50;;;;;9.74;66.17;100377.75;4974848;28;45423;-70
2022/05/30 02:18:51;;;;;;;;;12.00;12.00;;;;;9.71;66.07;100375.25;4975484;28;45291;-70
2022/05/30 02:21:17;;;;;;;;;16.75;14.00;;;;;9.70;66.44;100363.91;4974629;28;45381;-69
2022/05/30 02:23:43;;;;;;;;;12.00;12.00;;;;;9.68;66.61;100371.00;4972060;28;45411;-70
2022/05/30 02:26:09;;;;;;;;;11.00;9.50;;;;;9.65;66.74;100365.84;4972572;28;45357;-70
2022/05/30 02:28:36;;;;;;;;;8.25;8.25;;;;;9.63;67.01;100372.94;4972675;28;47378;-70
2022/05/30 02:31:02;;;;;;;;;9.00;7.00;;;;;9.61;67.19;100377.41;4974056;28;45243;-69
2022/05/30 02:38:55;;;;;;;;;7.00;7.00;;;;;9.51;67.81;100371.63;4980663;28;45454;-72
2022/05/30 02:41:20;;;;;;;;;8.00;6.50;;;;;9.50;67.69;100370.78;4980532;28;45371;-70
2022/05/30 02:43:46;;;;;;;;;5.25;5.25;;;;;9.40;67.67;100358.09;4977068;28;45317;-70
2022/05/30 02:46:12;;;;;;;;;5.75;5.75;;;;;9.48;67.80;100372.59;4976295;28;45539;-70
2022/05/30 02:48:37;;;;;;;;;7.25;6.75;;;;;9.46;68.09;100374.44;4976670;28;46180;-69
2022/05/30 02:51:02;;;;;;;;;9.50;8.25;;;;;9.44;68.37;100380.69;4977632;28;45211;-69
2022/05/30 02:53:28;;;;;;;;;8.50;6.50;;;;;9.38;68.69;100373.88;4973930;28;45314;-69
2022/05/30 02:55:53;;;;;;;;;8.00;7.00;;;;;9.35;68.84;100372.25;4974788;28;45306;-70
2022/05/30 02:58:19;;;;;;;;;7.75;6.75;;;;;9.34;68.79;100369.66;4973741;28;46965;-70
2022/05/30 03:00:44;;;;;;;;;10.00;8.00;;;;;9.33;68.79;100367.94;4974053;28;45310;-70
2022/05/30 03:03:09;;;;;;;;;7.75;7.25;;;;;9.22;68.74;100355.25;4973705;28;45316;-70
2022/05/30 03:05:37;;;;;;;;;7.00;7.00;;;;;9.30;68.92;100366.31;4973899;27;45346;-70
2022/05/30 03:08:07;;;;;;;;;6.00;6.00;;;;;9.17;68.96;100360.66;4972311;28;46442;-71
2022/05/30 03:10:32;;;;;;;;;6.25;6.25;;;;;9.15;69.78;100357.25;4973104;28;45370;-71
2022/05/30 03:12:58;;;;;;;;;7.00;7.00;;;;;9.23;69.01;100367.47;4976238;28;45236;-70
2022/05/30 03:15:24;;;;;;;;;7.50;7.50;;;;;9.24;69.13;100376.19;4980740;28;45303;-69
2022/05/30 03:17:51;;;;;;;;;8.50;8.25;;;;;9.23;69.26;100366.59;4973196;28;45284;-71
2022/05/30 03:20:17;;;;;;;;;8.75;7.50;;;;;9.20;69.06;100370.19;4973808;28;45354;-68
2022/05/30 03:22:42;;;;;;;;;8.50;7.75;;;;;9.24;68.89;100379.66;4971603;28;45438;-69
2022/05/30 03:25:09;;;;;;;;;8.00;8.00;;;;;9.24;69.22;100382.28;4974003;28;45321;-70
2022/05/30 03:27:34;;;;;;;;;9.25;8.00;;;;;9.20;69.77;100378.91;4977897;28;45346;-71
2022/05/30 03:29:59;;;;;;;;;11.00;8.50;;;;;9.15;69.21;100369.53;4973935;28;45314;-70
2022/05/30 03:32:25;;;;;;;;;10.00;9.25;;;;;9.18;69.06;100378.13;4975568;28;49094;-70
2022/05/30 03:34:50;;;;;;;;;9.50;9.50;;;;;9.15;68.94;100380.03;4976279;28;45416;-69
2022/05/30 03:37:15;;;;;;;;;6.75;6.75;;;;;9.15;69.50;100375.59;4973127;28;46258;-68
2022/05/30 03:39:41;;;;;;;;;11.50;9.50;;;;;9.11;69.61;100371.38;4973630;28;45406;-73
2022/05/30 03:42:06;;;;;;;;;8.50;8.00;;;;;9.11;69.32;100379.25;4976894;28;45331;-69
2022/05/30 03:44:31;;;;;;;;;11.00;11.00;;;;;9.10;69.27;100374.94;4978159;28;45802;-70
2022/05/30 03:46:57;;;;;;;;;10.00;10.00;;;;;9.09;69.46;100377.63;4975336;28;45474;-70
2022/05/30 03:49:22;;;;;;;;;9.00;9.00;;;;;9.08;69.63;100379.38;4972508;28;51739;-70
2022/05/30 03:51:47;;;;;;;;;8.00;8.00;;;;;8.96;70.08;100364.09;4973628;28;48592;-69
2022/05/30 03:54:13;;;;;;;;;8.00;8.00;;;;;9.04;70.05;100377.78;4974309;28;45603;-69
2022/05/30 03:56:39;;;;;;;;;7.50;7.50;;;;;9.02;70.48;100377.84;4976762;28;45963;-69
2022/05/30 03:59:05;;;;;;;;;10.00;10.00;;;;;9.02;71.45;100390.09;4977718;28;45376;-70
2022/05/30 04:01:30;;;;;;;;;10.25;10.25;;;;;9.01;70.43;100383.16;4982608;28;45327;-71
2022/05/30 04:03:56;;;;;;;;;10.25;10.25;;;;;9.00;70.75;100384.91;4981055;28;45514;-71
2022/05/30 04:06:21;;;;;;;;;10.75;9.25;;;;;9.01;69.72;100396.25;4980327;28;46356;-70
2022/05/30 04:08:46;;;;;;;;;9.50;9.50;;;;;9.00;70.20;100386.69;4980463;28;45624;-71
2022/05/30 04:11:12;;;;;;;;;8.00;8.00;;;;;9.01;70.10;100386.63;4976604;28;45289;-70
2022/05/30 04:13:37;;;;;;;;;10.00;10.00;;;;;9.04;70.30;100397.03;4976557;28;45385;-69
2022/05/30 04:16:13;;;;;;;;;12.25;12.25;;;;;8.94;70.48;100376.41;4975789;28;45680;-70
2022/05/30 04:18:38;;;;;;;;;11.75;10.00;;;;;9.01;70.18;100399.75;4980397;28;45335;-70
2022/05/30 04:21:08;;;;;;;;;11.00;11.00;;;;;9.03;70.79;100402.31;4977126;28;45314;-73
2022/05/30 04:23:34;;;;;;;;;11.00;11.00;;;;;9.05;69.90;100406.59;4976931;28;45410;-70
2022/05/30 04:25:59;;;;;;;;;15.50;13.00;;;;;9.05;70.29;100396.09;4976109;28;46328;-71
2022/05/30 04:28:25;;;;;;;;;8.50;7.25;;;;;9.04;70.78;100404.88;4976139;28;45220;-71
2022/05/30 04:30:50;;;;;;;;;10.50;9.50;;;;;9.02;70.60;100404.09;4976186;28;45402;-72
2022/05/30 04:33:16;;;;;;;;;13.00;10.00;;;;;9.03;70.73;100408.44;4974815;28;45270;-71
2022/05/30 04:35:44;;;;;;;;;15.25;11.50;;;;;9.02;70.79;100411.09;4976688;28;45418;-70
2022/05/30 04:38:09;;;;;;;;;16.50;14.00;;;;;9.00;70.99;100412.91;4978089;28;45252;-70
2022/05/30 04:40:35;;;;;;;;;12.00;12.00;;;;;8.99;71.20;100412.03;4983178;28;45335;-72
2022/05/30 04:43:00;;;;;;;;;11.00;9.00;;;;;8.99;71.21;100408.59;4976561;28;45332;-69
2022/05/30 04:45:26;;;;;;;;;13.00;10.00;;;;;9.01;70.31;100399.75;4976370;28;46209;-70
2022/05/30 04:47:51;;;;;;;;;13.25;12.25;;;;;9.10;70.74;100410.81;4976578;28;45248;-71
2022/05/30 04:50:17;;;;;;;;;11.75;10.00;;;;;9.00;70.20;100386.69;4977394;28;45446;-70
2022/05/30 04:52:44;;;;;;;;;42.50;37.50;;;;;9.12;70.26;100401.13;4978127;28;45558;-71
2022/05/30 04:55:11;;;;;;;;;9.25;8.75;;;;;9.15;69.83;100401.00;4977339;28;45401;-69
2022/05/30 04:57:46;;;;;;;;;13.75;11.00;;;;;9.28;70.06;100404.88;4976659;28;45465;-71
2022/05/30 05:00:16;;;;;;;;;11.25;10.75;;;;;9.54;69.64;100417.91;4958464;28;45396;-70
2022/05/30 05:02:41;;;;;;;;;14.75;14.50;;;;;9.85;68.38;100417.56;4976587;28;45654;-70
2022/05/30 05:05:07;;;;;;;;;13.25;12.00;;;;;10.27;68.01;100415.06;4975649;28;45819;-71
2022/05/30 05:08:05;;;;;;;;;10.25;10.25;;;;;10.75;65.90;100415.69;4974643;28;45354;-70
2022/05/30 05:10:58;;;;;;;;;11.75;11.75;;;;;11.28;64.87;100418.63;4998837;28;45479;-71
2022/05/30 05:13:23;;;;;;;;;10.00;10.00;;;;;11.71;64.02;100418.41;4975162;28;45264;-70
2022/05/30 05:15:49;;;;;;;;;12.25;11.00;;;;;12.04;62.97;100415.09;4974940;28;45308;-70
2022/05/30 05:18:14;;;;;;;;;11.00;9.00;;;;;12.38;61.52;100418.72;4975710;28;45272;-70
2022/05/30 05:20:44;;;;;;;;;10.50;10.50;;;;;12.58;60.70;100407.13;4980020;28;45207;-69
2022/05/30 05:23:11;;;;;;;;;14.50;11.75;;;;;12.77;60.25;100422.03;4977423;28;45324;-71
2022/05/30 05:25:37;;;;;;;;;8.00;8.00;;;;;12.92;59.72;100423.88;4975114;28;45292;-70
2022/05/30 05:28:03;;;;;;;;;9.00;9.00;;;;;13.00;58.80;100419.03;4976193;28;45199;-69
2022/05/30 05:30:28;;;;;;;;;9.75;8.25;;;;;13.11;58.78;100423.72;4975728;28;45260;-70
2022/05/30 05:32:54;;;;;;;;;10.50;9.00;;;;;13.20;57.95;100421.53;4976090;28;45219;-70
2022/05/30 05:35:23;;;;;;;;;6.00;6.00;;;;;13.32;58.09;100410.34;4974759;28;46287;-69
2022/05/30 05:37:48;;;;;;;;;9.00;8.25;;;;;13.35;57.47;100418.09;4974772;28;45330;-69
2022/05/30 05:40:13;;;;;;;;;13.00;8.25;;;;;13.38;57.22;100412.63;4974598;28;45834;-69
2022/05/30 05:42:39;;;;;;;;;11.00;9.00;;;;;13.32;56.81;100417.38;4974716;28;45417;-69
2022/05/30 05:45:05;;;;;;;;;12.75;10.25;;;;;13.23;57.11;100419.59;4974898;28;46002;-69
2022/05/30 05:47:30;;;;;;;;;10.00;8.00;;;;;13.24;57.00;100431.88;4977254;28;45315;-70
2022/05/30 05:49:56;;;;;;;;;9.50;9.50;;;;;13.17;57.08;100438.41;4977086;28;45339;-70
2022/05/30 05:52:25;;;;;;;;;10.00;9.00;;;;;13.05;57.20;100436.44;4975511;28;45491;-71
2022/05/30 05:54:53;;;;;;;;;11.75;10.00;;;;;12.85;57.59;100439.16;4977038;28;45220;-71
2022/05/30 05:57:19;;;;;;;;;15.25;12.25;;;;;12.62;57.24;100442.16;4975797;28;45426;-70
2022/05/30 05:59:44;;;;;;;;;17.00;10.50;;;;;12.48;57.86;100441.06;4974267;27;45363;-71
2022/05/30 06:02:09;;;;;;;;;7.00;7.00;;;;;12.31;58.55;100436.63;4972558;28;45534;-70
2022/05/30 06:04:38;;;;;;;;;10.75;9.00;;;;;12.10;58.41;100434.13;4973902;28;46163;-70
2022/05/30 06:07:04;;;;;;;;;12.00;11.00;;;;;11.93;59.04;100440.16;4975032;28;45362;-71
2022/05/30 06:09:29;;;;;;;;;11.50;9.75;;;;;11.86;59.32;100445.81;4973085;28;45252;-71
2022/05/30 06:11:57;;;;;;;;;11.25;9.00;;;;;11.72;59.84;100442.06;4975940;28;45234;-70
2022/05/30 06:14:23;;;;;;;;;11.25;10.50;;;;;11.72;59.59;100449.09;4973857;28;45387;-70
2022/05/30 06:16:48;;;;;;;;;11.25;9.75;;;;;11.61;59.91;100445.19;4972959;28;45266;-69
2022/05/30 06:19:14;;;;;;;;;11.75;10.00;;;;;11.56;60.38;100447.19;4973052;28;45409;-69
2022/05/30 06:21:39;;;;;;;;;7.50;6.00;;;;;11.45;60.43;100438.94;4972647;28;45438;-70
2022/05/30 06:24:05;;;;;;;;;20.75;17.00;;;;;11.40;60.50;100436.50;4973692;28;45884;-70
2022/05/30 06:26:31;;;;;;;;;14.00;12.00;;;;;11.31;60.88;100424.63;4973476;28;45330;-71
2022/05/30 06:28:57;;;;;;;;;8.50;8.50;;;;;11.26;61.21;100431.88;4973617;28;45329;-70
2022/05/30 06:31:27;;;;;;;;;17.00;15.50;;;;;11.34;61.38;100448.19;4976175;28;45370;-73
2022/05/30 06:33:56;;;;;;;;;12.25;11.00;;;;;11.33;61.69;100448.22;4978592;28;47173;-71
2022/05/30 06:36:23;;;;;;;;;20.50;18.75;;;;;11.33;61.45;100451.75;4977890;28;45398;-71
2022/05/30 06:38:51;;;;;;;;;14.25;12.50;;;;;11.34;61.05;100455.22;4974295;28;45188;-71
2022/05/30 06:41:26;;;;;;;;;13.25;9.50;;;;;11.37;61.44;100453.31;4973121;27;45232;-69
2022/05/30 06:43:57;;;;;;;;;11.25;11.00;;;;;11.47;61.54;100456.34;4973926;28;48336;-69
2022/05/30 06:46:22;;;;;;;;;9.75;9.00;;;;;11.53;60.85;100460.50;4974819;28;45274;-71
2022/05/30 06:48:48;;;;;;;;;7.50;7.50;;;;;11.58;60.83;100457.63;4981145;28;45222;-69
2022/05/30 06:51:17;;;;;;;;;9.50;9.50;;;;;11.63;60.79;100460.91;4976855;28;45361;-70
2022/05/30 06:53:45;;;;;;;;;12.25;10.50;;;;;11.70;60.72;100462.38;4973457;28;46199;-69
2022/05/30 06:56:18;;;;;;;;;11.50;8.25;;;;;11.80;60.69;100453.09;4974648;28;45519;-71
2022/05/30 06:58:45;;;;;;;;;10.25;10.00;;;;;11.88;60.20;100457.97;4974003;28;45267;-69
2022/05/30 07:01:11;;;;;;;;;11.00;9.00;;;;;11.91;60.21;100449.09;4973996;28;45358;-71
2022/05/30 07:03:38;;;;;;;;;15.75;10.50;;;;;11.96;59.98;100447.09;4975845;28;46450;-70
2022/05/30 07:06:09;;;;;;;;;8.50;8.50;;;;;12.03;59.79;100448.53;4975687;28;45268;-71
2022/05/30 07:08:36;;;;;;;;;10.50;9.00;;;;;12.08;59.50;100438.63;4973762;28;45287;-70
2022/05/30 07:11:01;;;;;;;;;10.25;9.00;;;;;12.13;59.13;100451.56;4973876;28;45454;-72
2022/05/30 07:13:28;;;;;;;;;7.75;7.75;;;;;12.12;58.64;100439.31;4972545;28;46032;-70
2022/05/30 07:15:53;;;;;;;;;9.25;8.25;;;;;12.16;58.61;100446.13;4975786;28;45232;-70
2022/05/30 07:18:19;;;;;;;;;7.25;7.25;;;;;12.21;58.05;100448.56;4991181;28;45806;-71
2022/05/30 07:20:45;;;;;;;;;11.75;7.25;;;;;12.26;58.16;100447.41;5031257;28;45315;-72
2022/05/30 07:23:13;;;;;;;;;7.75;7.75;;;;;12.32;58.16;100440.97;4991697;28;46131;-71
2022/05/30 07:25:39;;;;;;;;;10.00;6.75;;;;;12.50;58.62;100449.75;4991431;28;45430;-70
2022/05/30 07:28:05;;;;;;;;;8.00;8.00;;;;;12.63;58.40;100455.25;4980349;28;45351;-69
2022/05/30 07:30:34;;;;;;;;;9.00;8.00;;;;;12.73;57.30;100455.63;4985272;28;45334;-71
2022/05/30 07:32:59;;;;;;;;;7.75;6.25;;;;;12.76;57.74;100450.19;4986976;28;45367;-69
2022/05/30 07:35:25;;;;;;;;;8.25;8.25;;;;;12.80;57.21;100441.19;4982396;27;45840;-69
2022/05/30 07:37:51;;;;;;;;;5.25;5.25;;;;;12.90;56.60;100444.22;4992668;28;45227;-69
2022/05/30 07:40:17;;;;;;;;;7.25;7.25;;;;;12.96;56.35;100441.25;4990871;28;45294;-72
2022/05/30 07:42:42;;;;;;;;;5.25;5.25;;;;;13.09;56.38;100446.72;4981056;28;45510;-70
2022/05/30 07:45:09;;;;;;;;;10.50;7.00;;;;;13.19;55.16;100452.38;4990729;28;45564;-71
2022/05/30 07:47:35;;;;;;;;;6.00;5.00;;;;;13.21;54.84;100444.38;4990749;28;45394;-70
2022/05/30 07:50:02;;;;;;;;;5.50;5.50;;;;;13.15;55.02;100430.56;4992348;28;45469;-70
2022/05/30 07:52:32;;;;;;;;;6.50;5.75;;;;;13.27;54.44;100447.53;4989393;28;47027;-69
2022/05/30 07:54:58;;;;;;;;;6.00;6.00;;;;;13.34;54.55;100441.94;4991733;28;45422;-70
2022/05/30 07:57:50;;;;;;;;;5.00;5.00;;;;;13.44;54.20;100440.53;4992103;27;45349;-70
2022/05/30 08:00:11;;;;;;;;;9.50;8.25;;;;;13.51;54.45;100428.69;4994486;27;45318;-70
2022/05/30 08:02:38;;;;;;;;;9.00;7.00;;;;;13.61;54.37;100441.38;4997155;27;45290;-70
2022/05/30 08:05:04;;;;;;;;;7.75;6.50;;;;;13.68;53.32;100440.09;4999071;28;44763;-70
2022/05/30 08:07:30;;;;;;;;;8.00;5.00;;;;;13.76;53.08;100443.19;4999845;28;45323;-70
2022/05/30 08:09:55;;;;;;;;;6.00;6.00;;;;;13.83;53.11;100448.97;4993816;28;45240;-69
2022/05/30 08:12:20;;;;;;;;;6.00;6.00;;;;;13.92;52.94;100452.91;4991579;28;45395;-71
2022/05/30 08:14:46;;;;;;;;;5.00;5.00;;;;;14.00;52.19;100455.97;4991907;28;45373;-70
2022/05/30 08:17:11;;;;;;;;;6.75;5.25;;;;;14.04;51.68;100446.94;4992362;28;45357;-69
2022/05/30 08:19:39;;;;;;;;;4.75;4.75;;;;;14.05;51.55;100451.28;4991825;27;45483;-73
2022/05/30 08:22:07;;;;;;;;;6.25;6.25;;;;;14.26;51.78;100448.34;4991370;27;48487;-70
2022/05/30 08:24:37;;;;;;;;;2.75;2.75;;;;;14.36;51.20;100446.03;4991167;28;45357;-71
2022/05/30 08:27:04;;;;;;;;;6.25;5.00;;;;;14.50;51.23;100453.13;4990706;27;45357;-71
2022/05/30 08:29:30;;;;;;;;;7.00;7.00;;;;;14.58;50.24;100443.81;4991918;28;45304;-69
2022/05/30 08:31:56;;;;;;;;;23.00;23.00;;;;;14.53;49.80;100427.34;4991118;28;45294;-72
2022/05/30 08:34:21;;;;;;;;;7.00;4.00;;;;;14.63;49.98;100432.94;4991658;27;45428;-70
2022/05/30 08:36:47;;;;;;;;;9.25;7.50;;;;;14.79;50.63;100432.03;4991979;28;45246;-70
2022/05/30 08:41:57;;;;;;;;;5.25;5.25;;;;;14.96;49.33;100423.94;4993457;28;45345;-70
2022/05/30 08:44:23;;;;;;;;;4.50;4.50;;;;;15.04;48.78;100426.97;4995743;27;45239;-69
2022/05/30 08:47:14;;;;;;;;;5.75;5.75;;;;;15.17;49.03;100431.53;4995720;28;45338;-70
2022/05/30 08:49:49;;;;;;;;;7.00;5.25;;;;;15.32;48.52;100433.22;4996798;28;45360;-71
2022/05/30 08:52:36;;;;;;;;;3.75;3.75;;;;;15.40;47.72;100423.94;4993942;28;45388;-71
2022/05/30 08:55:40;;;;;;;;;3.00;3.00;;;;;15.45;47.67;100428.00;4993004;28;45779;-70
2022/05/30 08:58:55;;;;;;;;;5.50;5.50;;;;;15.50;47.73;100419.75;4994139;28;45380;-70
2022/05/30 09:01:29;;;;;;;;;5.25;4.25;;;;;15.62;47.37;100426.91;4947823;28;45375;-69
2022/05/30 09:04:10;;;;;;;;;1.00;1.00;;;;;15.70;46.66;100428.22;4993681;28;46404;-71
2022/05/30 09:06:47;;;;;;;;;5.00;3.00;;;;;15.73;46.40;100434.19;4995749;28;45264;-71
2022/05/30 09:09:37;;;;;;;;;4.50;4.25;;;;;15.76;46.65;100425.16;4994744;28;45503;-71
2022/05/30 09:12:31;;;;;;;;;7.25;5.25;;;;;15.91;46.18;100428.66;4996920;28;45330;-70
2022/05/30 09:15:06;;;;;;;;;5.50;5.50;;;;;16.02;46.22;100431.47;4989406;27;46114;-71
2022/05/30 09:17:42;;;;;;;;;5.75;5.75;;;;;16.12;45.50;100437.03;4995907;28;45351;-71
2022/05/30 09:20:12;;;;;;;;;8.25;7.00;;;;;16.23;45.75;100435.47;4996106;28;45268;-70
2022/05/30 09:22:39;;;;;;;;;3.00;3.00;;;;;16.25;44.85;100428.25;4995543;28;45268;-71
2022/05/30 09:27:50;;;;;;;;;3.25;2.75;;;;;16.13;44.58;100433.44;4993427;28;45349;-74
2022/05/30 09:30:21;;;;;;;;;4.00;4.00;;;;;16.24;44.32;100435.34;4993621;28;45284;-69
2022/05/30 09:33:00;;;;;;;;;6.00;6.00;;;;;16.21;44.44;100428.47;4996780;28;45349;-70
2022/05/30 09:35:32;;;;;;;;;6.25;6.25;;;;;16.30;44.29;100428.81;4993314;28;45763;-70
2022/05/30 09:38:17;;;;;;;;;5.50;5.50;;;;;16.34;44.49;100430.28;4994558;28;45418;-71
2022/05/30 09:40:51;;;;;;;;;4.25;4.25;;;;;16.46;44.15;100415.38;4994138;28;45332;-69
2022/05/30 09:43:54;;;;;;;;;6.00;3.00;;;;;16.59;43.72;100410.91;4994182;28;45310;-70
2022/05/30 09:46:24;;;;;;;;;10.75;9.75;;;;;16.61;43.26;100406.34;4993813;28;46250;-70
2022/05/30 09:49:09;;;;;;;;;4.25;4.25;;;;;16.64;43.04;100392.00;4994316;28;45463;-69
2022/05/30 09:51:44;;;;;;;;;4.25;4.25;;;;;16.67;42.99;100397.09;4993358;28;45321;-70
2022/05/30 09:54:24;;;;;;;;;7.25;5.25;;;;;16.64;42.30;100406.13;4994094;28;45306;-69
2022/05/30 09:56:54;;;;;;;;;6.00;2.75;;;;;16.64;42.38;100402.63;4993490;27;45377;-70
2022/05/30 09:59:40;;;;;;;;;3.00;3.00;;;;;16.72;42.59;100397.63;4992949;27;45321;-70
2022/05/30 10:02:26;;;;;;;;;5.00;5.00;;;;;16.77;42.01;100395.50;4993073;28;45383;-72
2022/05/30 10:05:04;;;;;;;;;2.50;2.50;;;;;16.83;41.54;100393.38;4993203;28;45227;-69
2022/05/30 10:07:35;;;;;;;;;4.00;4.00;;;;;16.74;40.60;100406.34;4993069;27;45320;-70
2022/05/30 10:10:01;;;;;;;;;7.00;2.75;;;;;16.75;41.69;100397.41;4993547;28;45413;-69
2022/05/30 10:12:44;;;;;;;;;2.25;2.00;;;;;16.91;41.62;100393.69;4993841;28;45250;-71
2022/05/30 10:15:22;;;;;;;;;3.50;3.50;;;;;17.06;41.19;100400.63;4993385;28;45351;-68
2022/05/30 10:17:49;;;;;;;;;6.00;3.00;;;;;17.13;41.18;100387.75;4994971;28;48260;-70
2022/05/30 10:20:41;;;;;;;;;2.00;2.00;;;;;17.24;41.01;100394.97;4993825;28;45320;-71
2022/05/30 10:29:46;;;;;;;;;4.25;3.25;;;;;17.59;40.37;100393.41;4994975;28;45362;-71
2022/05/30 10:32:26;;;;;;;;;7.75;7.75;;;;;17.76;40.33;100382.34;4994408;28;45335;-71
2022/05/30 10:35:02;;;;;;;;;3.00;3.00;;;;;17.89;39.85;100390.25;4992811;27;45220;-71
2022/05/30 10:37:52;;;;;;;;;17.75;14.50;;;;;18.08;39.30;100394.28;4992993;28;45507;-70
2022/05/30 10:40:35;;;;;;;;;2.50;2.50;;;;;18.20;38.86;100393.34;4992746;28;45417;-70
2022/05/30 10:43:10;;;;;;;;;1.75;1.75;;;;;18.19;38.84;100390.78;4992246;28;45390;-72
2022/05/30 10:45:58;;;;;;;;;9.00;8.25;;;;;18.30;38.32;100400.63;4993059;28;45320;-70
2022/05/30 10:48:33;;;;;;;;;2.00;2.00;;;;;18.32;38.55;100406.69;4993387;27;45425;-69
2022/05/30 10:51:06;;;;;;;;;3.25;3.25;;;;;18.30;37.92;100414.78;4994614;28;45375;-72
2022/05/30 10:53:40;;;;;;;;;3.50;3.50;;;;;18.28;37.91;100402.56;4994930;28;45357;-68
2022/05/30 10:56:35;;;;;;;;;3.00;3.00;;;;;18.22;37.20;100403.88;4992527;28;45420;-70
2022/05/30 10:59:24;;;;;;;;;4.25;2.75;;;;;18.31;37.38;100402.34;4985519;28;45294;-71
2022/05/30 11:02:10;;;;;;;;;22.00;8.75;;;;;18.44;36.61;100403.09;4993758;28;45331;-70
2022/05/30 11:04:52;;;;;;;;;4.00;2.75;;;;;18.53;37.00;100399.72;4960775;28;45298;-70
2022/05/30 11:07:37;;;;;;;;;2.25;2.25;;;;;18.73;37.19;100396.50;4991855;28;45185;-70
2022/05/30 11:10:24;;;;;;;;;4.00;4.00;;;;;19.02;36.62;100398.72;4992923;28;45394;-69
2022/05/30 11:13:23;;;;;;;;;3.00;3.00;;;;;19.27;36.20;100395.78;4992486;28;45387;-71
2022/05/30 11:16:01;;;;;;;;;3.75;2.75;;;;;19.48;35.69;100394.19;4991272;27;45433;-70
2022/05/30 11:18:38;;;;;;;;;3.00;3.00;;;;;19.73;35.43;100392.19;4993324;28;45380;-69
2022/05/30 11:21:16;;;;;;;;;3.00;2.75;;;;;19.96;33.63;100395.69;4994405;27;45189;-69
2022/05/30 11:23:43;;;;;;;;;2.50;1.50;;;;;20.00;34.40;100395.28;4994739;28;45485;-70
2022/05/30 11:26:32;;;;;;;;;4.00;4.00;;;;;20.15;35.08;100395.00;4992906;28;45375;-71
2022/05/30 11:29:53;;;;;;;;;3.25;3.25;;;;;20.35;34.41;100387.97;4994301;28;45262;-70
2022/05/30 11:32:42;;;;;;;;;3.50;3.50;;;;;20.39;34.36;100380.53;4932532;28;45600;-71
2022/05/30 11:35:46;;;;;;;;;12.00;12.00;;;;;20.26;34.42;100386.94;4989131;28;46091;-70
2022/05/30 11:38:36;;;;;;;;;6.50;3.00;;;;;20.08;34.50;100383.09;4991127;28;45456;-71
2022/05/30 11:41:26;;;;;;;;;2.00;2.00;;;;;19.94;34.10;100393.13;4991908;28;45329;-69
2022/05/30 11:44:23;;;;;;;;;1.00;1.00;;;;;19.86;34.20;100387.53;4992438;28;45330;-69
2022/05/30 11:47:20;;;;;;;;;5.00;1.50;;;;;19.74;33.82;100378.75;4980904;27;45756;-71
2022/05/30 11:50:03;;;;;;;;;2.00;2.00;;;;;19.66;33.66;100379.34;4992634;28;45254;-69
2022/05/30 11:52:29;;;;;;;;;5.00;4.00;;;;;19.82;33.96;100389.63;4992675;27;44737;-70
2022/05/30 11:55:14;;;;;;;;;3.00;3.00;;;;;19.99;33.20;100379.41;4992765;27;45255;-70
2022/05/30 11:58:09;;;;;;;;;3.75;3.75;;;;;20.02;33.11;100394.31;4992452;27;46157;-69
2022/05/30 12:00:47;;;;;;;;;2.50;2.50;;;;;19.88;33.45;100376.75;4992390;28;45322;-69
2022/05/30 12:03:54;;;;;;;;;4.00;4.00;;;;;20.01;33.26;100377.44;4993789;28;45419;-71